sensor_id;sensor_type;location;lat;lon;timestamp;P1;durP1;ratioP1;P2;durP2;ratioP2
14847;SDS011;7516;43.570;1.448;2022-09-12T00:00:50;3.05;;;0.73;;
14847;SDS011;7516;43.570;1.448;2022-09-12T00:03:27;2.35;;;0.70;;
14847;SDS011;7516;43.570;1.448;2022-09-12T00:05:54;3.42;;;0.80;;
14847;SDS011;7516;43.570;1.448;2022-09-12T00:08:22;3.15;;;0.60;;
14847;SDS011;7516;43.570;1.448;2022-09-12T00:10:49;2.13;;;0.80;;
14847;SDS011;7516;43.570;1.448;2022-09-12T00:13:17;2.35;;;0.60;;
14847;SDS011;7516;43.570;1.448;2022-09-12T00:15:44;3.25;;;0.70;;
14847;SDS011;7516;43.570;1.448;2022-09-12T00:18:14;1.48;;;0.75;;
14847;SDS011;7516;43.570;1.448;2022-09-12T00:20:42;3.67;;;1.15;;
14847;SDS011;7516;43.570;1.448;2022-09-12T00:23:11;2.22;;;0.80;;
14847;SDS011;7516;43.570;1.448;2022-09-12T00:25:41;1.85;;;0.65;;
14847;SDS011;7516;43.570;1.448;2022-09-12T00:28:10;1.67;;;1.00;;
14847;SDS011;7516;43.570;1.448;2022-09-12T00:30:39;1.58;;;0.70;;
14847;SDS011;7516;43.570;1.448;2022-09-12T00:33:07;1.33;;;0.70;;
14847;SDS011;7516;43.570;1.448;2022-09-12T00:35:41;1.45;;;0.80;;
14847;SDS011;7516;43.570;1.448;2022-09-12T00:38:09;3.85;;;0.70;;
14847;SDS011;7516;43.570;1.448;2022-09-12T00:40:37;4.13;;;1.00;;
14847;SDS011;7516;43.570;1.448;2022-09-12T00:43:05;2.28;;;0.80;;
14847;SDS011;7516;43.570;1.448;2022-09-12T00:45:36;3.05;;;1.38;;
14847;SDS011;7516;43.570;1.448;2022-09-12T00:48:07;2.20;;;0.90;;
14847;SDS011;7516;43.570;1.448;2022-09-12T00:50:47;2.15;;;0.73;;
14847;SDS011;7516;43.570;1.448;2022-09-12T00:53:15;0.82;;;0.55;;
14847;SDS011;7516;43.570;1.448;2022-09-12T00:55:44;1.73;;;0.82;;
14847;SDS011;7516;43.570;1.448;2022-09-12T00:58:16;1.63;;;0.88;;
14847;SDS011;7516;43.570;1.448;2022-09-12T01:00:48;3.28;;;0.80;;
14847;SDS011;7516;43.570;1.448;2022-09-12T01:03:17;2.53;;;0.98;;
14847;SDS011;7516;43.570;1.448;2022-09-12T01:05:50;3.15;;;0.70;;
14847;SDS011;7516;43.570;1.448;2022-09-12T01:08:26;2.05;;;0.70;;
14847;SDS011;7516;43.570;1.448;2022-09-12T01:10:55;1.45;;;0.63;;
14847;SDS011;7516;43.570;1.448;2022-09-12T01:13:23;4.32;;;0.88;;
14847;SDS011;7516;43.570;1.448;2022-09-12T01:15:51;4.75;;;0.88;;
14847;SDS011;7516;43.570;1.448;2022-09-12T01:18:20;2.45;;;0.80;;
14847;SDS011;7516;43.570;1.448;2022-09-12T01:21:02;2.95;;;0.85;;
14847;SDS011;7516;43.570;1.448;2022-09-12T01:26:54;1.85;;;0.73;;
14847;SDS011;7516;43.570;1.448;2022-09-12T01:32:46;4.63;;;0.88;;
14847;SDS011;7516;43.570;1.448;2022-09-12T01:35:24;3.70;;;0.80;;
14847;SDS011;7516;43.570;1.448;2022-09-12T01:38:02;1.63;;;0.85;;
14847;SDS011;7516;43.570;1.448;2022-09-12T01:40:38;3.53;;;1.08;;
14847;SDS011;7516;43.570;1.448;2022-09-12T01:43:12;2.17;;;0.90;;
14847;SDS011;7516;43.570;1.448;2022-09-12T01:45:48;2.83;;;0.82;;
14847;SDS011;7516;43.570;1.448;2022-09-12T01:48:23;2.45;;;0.82;;
14847;SDS011;7516;43.570;1.448;2022-09-12T01:50:56;1.77;;;0.70;;
14847;SDS011;7516;43.570;1.448;2022-09-12T01:53:31;3.28;;;0.82;;
14847;SDS011;7516;43.570;1.448;2022-09-12T01:56:02;3.05;;;0.70;;
14847;SDS011;7516;43.570;1.448;2022-09-12T01:58:34;2.55;;;0.80;;
14847;SDS011;7516;43.570;1.448;2022-09-12T02:01:09;3.00;;;0.90;;
14847;SDS011;7516;43.570;1.448;2022-09-12T02:03:42;2.15;;;0.80;;
14847;SDS011;7516;43.570;1.448;2022-09-12T02:06:14;1.55;;;0.60;;
14847;SDS011;7516;43.570;1.448;2022-09-12T02:08:45;2.05;;;1.15;;
14847;SDS011;7516;43.570;1.448;2022-09-12T02:11:16;5.00;;;1.00;;
14847;SDS011;7516;43.570;1.448;2022-09-12T02:13:46;4.03;;;1.17;;
14847;SDS011;7516;43.570;1.448;2022-09-12T02:16:23;1.75;;;0.80;;
14847;SDS011;7516;43.570;1.448;2022-09-12T02:18:56;2.45;;;1.00;;
14847;SDS011;7516;43.570;1.448;2022-09-12T02:21:32;3.13;;;0.80;;
14847;SDS011;7516;43.570;1.448;2022-09-12T02:24:05;2.40;;;0.90;;
14847;SDS011;7516;43.570;1.448;2022-09-12T02:26:37;2.53;;;0.80;;
14847;SDS011;7516;43.570;1.448;2022-09-12T02:29:11;2.55;;;1.00;;
14847;SDS011;7516;43.570;1.448;2022-09-12T02:31:41;0.77;;;0.65;;
14847;SDS011;7516;43.570;1.448;2022-09-12T02:34:14;3.05;;;0.70;;
14847;SDS011;7516;43.570;1.448;2022-09-12T02:36:54;2.75;;;0.80;;
14847;SDS011;7516;43.570;1.448;2022-09-12T02:39:30;1.65;;;0.80;;
14847;SDS011;7516;43.570;1.448;2022-09-12T02:41:59;1.27;;;0.60;;
14847;SDS011;7516;43.570;1.448;2022-09-12T02:44:28;2.55;;;0.80;;
14847;SDS011;7516;43.570;1.448;2022-09-12T02:47:00;2.08;;;0.70;;
14847;SDS011;7516;43.570;1.448;2022-09-12T02:49:31;2.88;;;0.95;;
14847;SDS011;7516;43.570;1.448;2022-09-12T02:51:59;3.65;;;0.77;;
14847;SDS011;7516;43.570;1.448;2022-09-12T02:54:27;2.45;;;0.73;;
14847;SDS011;7516;43.570;1.448;2022-09-12T02:56:56;3.17;;;0.70;;
14847;SDS011;7516;43.570;1.448;2022-09-12T02:59:23;2.80;;;0.60;;
14847;SDS011;7516;43.570;1.448;2022-09-12T03:01:55;1.38;;;0.70;;
14847;SDS011;7516;43.570;1.448;2022-09-12T03:04:43;2.25;;;0.75;;
14847;SDS011;7516;43.570;1.448;2022-09-12T03:07:23;2.53;;;0.70;;
14847;SDS011;7516;43.570;1.448;2022-09-12T03:10:02;1.25;;;0.63;;
14847;SDS011;7516;43.570;1.448;2022-09-12T03:12:43;1.77;;;0.70;;
14847;SDS011;7516;43.570;1.448;2022-09-12T03:15:21;3.28;;;0.80;;
14847;SDS011;7516;43.570;1.448;2022-09-12T03:18:03;2.40;;;0.63;;
14847;SDS011;7516;43.570;1.448;2022-09-12T03:20:44;2.42;;;0.80;;
14847;SDS011;7516;43.570;1.448;2022-09-12T03:23:21;3.92;;;0.95;;
14847;SDS011;7516;43.570;1.448;2022-09-12T03:25:55;4.10;;;1.02;;
14847;SDS011;7516;43.570;1.448;2022-09-12T03:28:25;1.25;;;0.88;;
14847;SDS011;7516;43.570;1.448;2022-09-12T03:30:53;2.03;;;0.80;;
14847;SDS011;7516;43.570;1.448;2022-09-12T03:33:22;2.10;;;0.82;;
14847;SDS011;7516;43.570;1.448;2022-09-12T03:35:51;2.67;;;0.80;;
14847;SDS011;7516;43.570;1.448;2022-09-12T03:38:20;1.90;;;0.93;;
14847;SDS011;7516;43.570;1.448;2022-09-12T03:40:47;1.50;;;0.90;;
14847;SDS011;7516;43.570;1.448;2022-09-12T03:43:15;3.10;;;0.90;;
14847;SDS011;7516;43.570;1.448;2022-09-12T03:45:43;1.35;;;0.90;;
14847;SDS011;7516;43.570;1.448;2022-09-12T03:48:15;2.83;;;1.10;;
14847;SDS011;7516;43.570;1.448;2022-09-12T03:50:44;2.15;;;0.88;;
14847;SDS011;7516;43.570;1.448;2022-09-12T03:53:11;2.90;;;0.93;;
14847;SDS011;7516;43.570;1.448;2022-09-12T03:55:38;3.47;;;0.98;;
14847;SDS011;7516;43.570;1.448;2022-09-12T03:58:06;3.42;;;1.00;;
14847;SDS011;7516;43.570;1.448;2022-09-12T04:00:33;2.10;;;0.85;;
14847;SDS011;7516;43.570;1.448;2022-09-12T04:03:01;2.83;;;0.98;;
14847;SDS011;7516;43.570;1.448;2022-09-12T04:05:29;2.13;;;1.00;;
14847;SDS011;7516;43.570;1.448;2022-09-12T04:07:58;2.90;;;1.23;;
14847;SDS011;7516;43.570;1.448;2022-09-12T04:10:25;2.53;;;1.00;;
14847;SDS011;7516;43.570;1.448;2022-09-12T04:12:53;3.38;;;1.15;;
14847;SDS011;7516;43.570;1.448;2022-09-12T04:15:20;2.50;;;1.08;;
14847;SDS011;7516;43.570;1.448;2022-09-12T04:17:48;4.53;;;1.00;;
14847;SDS011;7516;43.570;1.448;2022-09-12T04:20:15;1.85;;;1.00;;
14847;SDS011;7516;43.570;1.448;2022-09-12T04:22:43;3.33;;;1.10;;
14847;SDS011;7516;43.570;1.448;2022-09-12T04:25:12;3.90;;;1.08;;
14847;SDS011;7516;43.570;1.448;2022-09-12T04:27:39;2.25;;;1.00;;
14847;SDS011;7516;43.570;1.448;2022-09-12T04:30:07;1.00;;;0.90;;
14847;SDS011;7516;43.570;1.448;2022-09-12T04:32:35;3.28;;;1.25;;
14847;SDS011;7516;43.570;1.448;2022-09-12T04:35:03;2.33;;;1.17;;
14847;SDS011;7516;43.570;1.448;2022-09-12T04:37:31;1.20;;;1.10;;
14847;SDS011;7516;43.570;1.448;2022-09-12T04:39:58;3.17;;;1.48;;
14847;SDS011;7516;43.570;1.448;2022-09-12T04:42:27;2.33;;;1.20;;
14847;SDS011;7516;43.570;1.448;2022-09-12T04:44:55;3.05;;;1.40;;
14847;SDS011;7516;43.570;1.448;2022-09-12T04:47:23;2.58;;;1.35;;
14847;SDS011;7516;43.570;1.448;2022-09-12T04:49:50;3.10;;;1.27;;
14847;SDS011;7516;43.570;1.448;2022-09-12T04:52:18;1.98;;;1.30;;
14847;SDS011;7516;43.570;1.448;2022-09-12T04:54:45;2.55;;;1.33;;
14847;SDS011;7516;43.570;1.448;2022-09-12T04:57:13;2.67;;;1.42;;
14847;SDS011;7516;43.570;1.448;2022-09-12T04:59:42;3.15;;;1.52;;
14847;SDS011;7516;43.570;1.448;2022-09-12T05:02:09;2.55;;;1.45;;
14847;SDS011;7516;43.570;1.448;2022-09-12T05:04:37;4.20;;;1.40;;
14847;SDS011;7516;43.570;1.448;2022-09-12T05:07:04;3.42;;;1.52;;
14847;SDS011;7516;43.570;1.448;2022-09-12T05:09:32;2.40;;;1.50;;
14847;SDS011;7516;43.570;1.448;2022-09-12T05:11:59;3.03;;;1.40;;
14847;SDS011;7516;43.570;1.448;2022-09-12T05:14:27;2.28;;;1.50;;
14847;SDS011;7516;43.570;1.448;2022-09-12T05:16:57;2.70;;;1.60;;
14847;SDS011;7516;43.570;1.448;2022-09-12T05:19:25;3.50;;;1.58;;
14847;SDS011;7516;43.570;1.448;2022-09-12T05:21:53;1.95;;;1.60;;
14847;SDS011;7516;43.570;1.448;2022-09-12T05:24:20;4.45;;;1.73;;
14847;SDS011;7516;43.570;1.448;2022-09-12T05:26:48;2.22;;;1.70;;
14847;SDS011;7516;43.570;1.448;2022-09-12T05:29:16;2.38;;;1.70;;
14847;SDS011;7516;43.570;1.448;2022-09-12T05:31:44;2.53;;;1.40;;
14847;SDS011;7516;43.570;1.448;2022-09-12T05:34:17;2.97;;;1.70;;
14847;SDS011;7516;43.570;1.448;2022-09-12T05:36:45;3.10;;;1.83;;
14847;SDS011;7516;43.570;1.448;2022-09-12T05:39:13;3.47;;;2.22;;
14847;SDS011;7516;43.570;1.448;2022-09-12T05:41:41;1.85;;;1.50;;
14847;SDS011;7516;43.570;1.448;2022-09-12T05:44:09;2.40;;;1.65;;
14847;SDS011;7516;43.570;1.448;2022-09-12T05:46:39;2.88;;;1.58;;
14847;SDS011;7516;43.570;1.448;2022-09-12T05:49:08;2.63;;;1.33;;
14847;SDS011;7516;43.570;1.448;2022-09-12T05:51:39;2.70;;;1.50;;
14847;SDS011;7516;43.570;1.448;2022-09-12T05:54:09;2.33;;;1.38;;
14847;SDS011;7516;43.570;1.448;2022-09-12T05:56:39;2.50;;;1.50;;
14847;SDS011;7516;43.570;1.448;2022-09-12T05:59:10;4.45;;;1.73;;
14847;SDS011;7516;43.570;1.448;2022-09-12T06:01:38;2.20;;;1.60;;
14847;SDS011;7516;43.570;1.448;2022-09-12T06:04:06;1.70;;;1.38;;
14847;SDS011;7516;43.570;1.448;2022-09-12T06:06:34;2.00;;;1.75;;
14847;SDS011;7516;43.570;1.448;2022-09-12T06:09:07;3.50;;;1.50;;
14847;SDS011;7516;43.570;1.448;2022-09-12T06:11:34;1.48;;;1.27;;
14847;SDS011;7516;43.570;1.448;2022-09-12T06:14:05;2.35;;;1.50;;
14847;SDS011;7516;43.570;1.448;2022-09-12T06:16:34;3.33;;;1.40;;
14847;SDS011;7516;43.570;1.448;2022-09-12T06:19:03;1.40;;;1.30;;
14847;SDS011;7516;43.570;1.448;2022-09-12T06:21:32;2.63;;;1.50;;
14847;SDS011;7516;43.570;1.448;2022-09-12T06:24:01;1.40;;;1.17;;
14847;SDS011;7516;43.570;1.448;2022-09-12T06:26:38;3.05;;;1.27;;
14847;SDS011;7516;43.570;1.448;2022-09-12T06:29:05;2.92;;;1.00;;
14847;SDS011;7516;43.570;1.448;2022-09-12T06:31:34;2.80;;;1.83;;
14847;SDS011;7516;43.570;1.448;2022-09-12T06:34:04;3.42;;;1.48;;
14847;SDS011;7516;43.570;1.448;2022-09-12T06:36:33;3.50;;;1.27;;
14847;SDS011;7516;43.570;1.448;2022-09-12T06:39:04;3.20;;;1.48;;
14847;SDS011;7516;43.570;1.448;2022-09-12T06:41:33;4.60;;;1.60;;
14847;SDS011;7516;43.570;1.448;2022-09-12T06:44:02;2.72;;;1.27;;
14847;SDS011;7516;43.570;1.448;2022-09-12T06:46:31;2.20;;;1.30;;
14847;SDS011;7516;43.570;1.448;2022-09-12T06:48:59;1.92;;;1.40;;
14847;SDS011;7516;43.570;1.448;2022-09-12T06:51:27;1.77;;;1.20;;
14847;SDS011;7516;43.570;1.448;2022-09-12T06:53:55;2.72;;;1.30;;
14847;SDS011;7516;43.570;1.448;2022-09-12T06:56:23;2.22;;;1.27;;
14847;SDS011;7516;43.570;1.448;2022-09-12T06:58:52;3.42;;;1.25;;
14847;SDS011;7516;43.570;1.448;2022-09-12T07:01:24;2.33;;;1.40;;
14847;SDS011;7516;43.570;1.448;2022-09-12T07:03:54;3.10;;;1.40;;
14847;SDS011;7516;43.570;1.448;2022-09-12T07:06:23;2.53;;;1.40;;
14847;SDS011;7516;43.570;1.448;2022-09-12T07:08:56;1.40;;;1.30;;
14847;SDS011;7516;43.570;1.448;2022-09-12T07:11:24;4.25;;;0.98;;
14847;SDS011;7516;43.570;1.448;2022-09-12T07:13:54;3.28;;;1.30;;
14847;SDS011;7516;43.570;1.448;2022-09-12T07:16:25;2.55;;;1.40;;
14847;SDS011;7516;43.570;1.448;2022-09-12T07:18:53;3.53;;;1.40;;
14847;SDS011;7516;43.570;1.448;2022-09-12T07:21:22;2.08;;;1.15;;
14847;SDS011;7516;43.570;1.448;2022-09-12T07:23:50;3.05;;;1.35;;
14847;SDS011;7516;43.570;1.448;2022-09-12T07:26:19;4.03;;;1.42;;
14847;SDS011;7516;43.570;1.448;2022-09-12T07:28:49;3.20;;;1.23;;
14847;SDS011;7516;43.570;1.448;2022-09-12T07:31:18;2.50;;;1.40;;
14847;SDS011;7516;43.570;1.448;2022-09-12T07:33:49;4.05;;;1.30;;
14847;SDS011;7516;43.570;1.448;2022-09-12T07:36:17;2.53;;;1.30;;
14847;SDS011;7516;43.570;1.448;2022-09-12T07:38:46;2.88;;;1.50;;
14847;SDS011;7516;43.570;1.448;2022-09-12T07:41:18;2.88;;;1.27;;
14847;SDS011;7516;43.570;1.448;2022-09-12T07:43:50;1.63;;;1.40;;
14847;SDS011;7516;43.570;1.448;2022-09-12T07:46:18;2.70;;;1.50;;
14847;SDS011;7516;43.570;1.448;2022-09-12T07:48:49;1.92;;;1.55;;
14847;SDS011;7516;43.570;1.448;2022-09-12T07:51:18;1.50;;;1.33;;
14847;SDS011;7516;43.570;1.448;2022-09-12T07:53:45;2.22;;;1.50;;
14847;SDS011;7516;43.570;1.448;2022-09-12T07:56:14;2.30;;;1.50;;
14847;SDS011;7516;43.570;1.448;2022-09-12T07:58:42;2.28;;;1.50;;
14847;SDS011;7516;43.570;1.448;2022-09-12T08:01:10;1.98;;;1.33;;
14847;SDS011;7516;43.570;1.448;2022-09-12T08:03:39;3.25;;;1.42;;
14847;SDS011;7516;43.570;1.448;2022-09-12T08:06:09;2.80;;;1.35;;
14847;SDS011;7516;43.570;1.448;2022-09-12T08:08:39;2.65;;;1.80;;
14847;SDS011;7516;43.570;1.448;2022-09-12T08:11:07;2.30;;;1.67;;
14847;SDS011;7516;43.570;1.448;2022-09-12T08:13:37;2.85;;;1.77;;
14847;SDS011;7516;43.570;1.448;2022-09-12T08:16:07;3.00;;;2.03;;
14847;SDS011;7516;43.570;1.448;2022-09-12T08:18:37;3.38;;;1.70;;
14847;SDS011;7516;43.570;1.448;2022-09-12T08:21:06;3.13;;;1.88;;
14847;SDS011;7516;43.570;1.448;2022-09-12T08:23:37;3.10;;;1.90;;
14847;SDS011;7516;43.570;1.448;2022-09-12T08:26:05;3.97;;;1.85;;
14847;SDS011;7516;43.570;1.448;2022-09-12T08:28:34;3.85;;;1.85;;
14847;SDS011;7516;43.570;1.448;2022-09-12T08:31:04;6.30;;;2.08;;
14847;SDS011;7516;43.570;1.448;2022-09-12T08:33:33;3.72;;;2.13;;
14847;SDS011;7516;43.570;1.448;2022-09-12T08:36:02;9.75;;;2.45;;
14847;SDS011;7516;43.570;1.448;2022-09-12T08:38:31;3.83;;;2.13;;
14847;SDS011;7516;43.570;1.448;2022-09-12T08:41:02;5.05;;;2.28;;
14847;SDS011;7516;43.570;1.448;2022-09-12T08:43:39;6.32;;;2.00;;
14847;SDS011;7516;43.570;1.448;2022-09-12T08:46:18;4.68;;;1.77;;
14847;SDS011;7516;43.570;1.448;2022-09-12T08:48:52;2.42;;;1.60;;
14847;SDS011;7516;43.570;1.448;2022-09-12T08:51:23;3.95;;;1.80;;
14847;SDS011;7516;43.570;1.448;2022-09-12T08:53:54;3.53;;;1.95;;
14847;SDS011;7516;43.570;1.448;2022-09-12T08:56:22;5.70;;;2.08;;
14847;SDS011;7516;43.570;1.448;2022-09-12T08:58:52;3.35;;;1.83;;
14847;SDS011;7516;43.570;1.448;2022-09-12T09:01:22;7.75;;;1.70;;
14847;SDS011;7516;43.570;1.448;2022-09-12T09:06:56;5.32;;;1.45;;
14847;SDS011;7516;43.570;1.448;2022-09-12T09:09:53;4.15;;;1.55;;
14847;SDS011;7516;43.570;1.448;2022-09-12T09:12:32;3.53;;;1.50;;
14847;SDS011;7516;43.570;1.448;2022-09-12T09:15:10;3.22;;;1.35;;
14847;SDS011;7516;43.570;1.448;2022-09-12T09:18:07;5.53;;;1.70;;
14847;SDS011;7516;43.570;1.448;2022-09-12T09:20:43;4.28;;;1.33;;
14847;SDS011;7516;43.570;1.448;2022-09-12T09:23:15;3.80;;;1.42;;
14847;SDS011;7516;43.570;1.448;2022-09-12T09:25:50;2.35;;;1.40;;
14847;SDS011;7516;43.570;1.448;2022-09-12T09:28:24;3.47;;;1.48;;
14847;SDS011;7516;43.570;1.448;2022-09-12T09:30:57;5.03;;;1.40;;
14847;SDS011;7516;43.570;1.448;2022-09-12T09:33:25;3.58;;;1.50;;
14847;SDS011;7516;43.570;1.448;2022-09-12T09:36:00;4.82;;;1.55;;
14847;SDS011;7516;43.570;1.448;2022-09-12T09:38:39;3.95;;;1.42;;
14847;SDS011;7516;43.570;1.448;2022-09-12T09:41:18;2.17;;;1.45;;
14847;SDS011;7516;43.570;1.448;2022-09-12T09:44:01;5.20;;;1.60;;
14847;SDS011;7516;43.570;1.448;2022-09-12T09:46:29;4.47;;;1.48;;
14847;SDS011;7516;43.570;1.448;2022-09-12T09:48:58;4.50;;;1.50;;
14847;SDS011;7516;43.570;1.448;2022-09-12T09:51:28;4.88;;;1.50;;
14847;SDS011;7516;43.570;1.448;2022-09-12T09:54:00;3.85;;;1.58;;
14847;SDS011;7516;43.570;1.448;2022-09-12T09:56:33;4.47;;;1.63;;
14847;SDS011;7516;43.570;1.448;2022-09-12T09:59:08;5.10;;;1.80;;
14847;SDS011;7516;43.570;1.448;2022-09-12T10:01:37;4.88;;;1.50;;
14847;SDS011;7516;43.570;1.448;2022-09-12T10:04:16;2.45;;;1.48;;
14847;SDS011;7516;43.570;1.448;2022-09-12T10:06:45;2.28;;;1.67;;
14847;SDS011;7516;43.570;1.448;2022-09-12T10:09:22;2.42;;;1.50;;
14847;SDS011;7516;43.570;1.448;2022-09-12T10:11:53;3.53;;;1.50;;
14847;SDS011;7516;43.570;1.448;2022-09-12T10:14:32;3.35;;;1.50;;
14847;SDS011;7516;43.570;1.448;2022-09-12T10:17:04;2.92;;;1.40;;
14847;SDS011;7516;43.570;1.448;2022-09-12T10:19:51;2.45;;;1.58;;
14847;SDS011;7516;43.570;1.448;2022-09-12T10:22:19;5.32;;;1.45;;
14847;SDS011;7516;43.570;1.448;2022-09-12T10:24:49;4.07;;;1.70;;
14847;SDS011;7516;43.570;1.448;2022-09-12T10:27:21;2.53;;;1.42;;
14847;SDS011;7516;43.570;1.448;2022-09-12T10:29:52;4.43;;;2.05;;
14847;SDS011;7516;43.570;1.448;2022-09-12T10:32:25;3.28;;;1.88;;
14847;SDS011;7516;43.570;1.448;2022-09-12T10:34:55;2.65;;;1.70;;
14847;SDS011;7516;43.570;1.448;2022-09-12T10:37:27;3.00;;;1.67;;
14847;SDS011;7516;43.570;1.448;2022-09-12T10:39:57;3.47;;;2.20;;
14847;SDS011;7516;43.570;1.448;2022-09-12T10:42:47;5.57;;;1.75;;
14847;SDS011;7516;43.570;1.448;2022-09-12T10:45:21;4.43;;;2.20;;
14847;SDS011;7516;43.570;1.448;2022-09-12T10:47:50;2.90;;;1.70;;
14847;SDS011;7516;43.570;1.448;2022-09-12T10:50:27;3.20;;;1.88;;
14847;SDS011;7516;43.570;1.448;2022-09-12T10:53:11;2.50;;;1.77;;
14847;SDS011;7516;43.570;1.448;2022-09-12T10:55:41;5.13;;;2.13;;
14847;SDS011;7516;43.570;1.448;2022-09-12T10:58:29;4.85;;;1.92;;
14847;SDS011;7516;43.570;1.448;2022-09-12T11:01:06;4.63;;;2.00;;
14847;SDS011;7516;43.570;1.448;2022-09-12T11:03:48;2.63;;;2.03;;
14847;SDS011;7516;43.570;1.448;2022-09-12T11:06:32;3.90;;;2.13;;
14847;SDS011;7516;43.570;1.448;2022-09-12T11:09:09;3.63;;;2.30;;
14847;SDS011;7516;43.570;1.448;2022-09-12T11:11:49;4.82;;;2.63;;
14847;SDS011;7516;43.570;1.448;2022-09-12T11:14:30;5.35;;;2.40;;
14847;SDS011;7516;43.570;1.448;2022-09-12T11:17:13;5.25;;;2.22;;
14847;SDS011;7516;43.570;1.448;2022-09-12T11:19:52;5.53;;;2.45;;
14847;SDS011;7516;43.570;1.448;2022-09-12T11:22:45;2.97;;;2.17;;
14847;SDS011;7516;43.570;1.448;2022-09-12T11:25:33;5.28;;;2.25;;
14847;SDS011;7516;43.570;1.448;2022-09-12T11:28:09;2.92;;;1.92;;
14847;SDS011;7516;43.570;1.448;2022-09-12T11:31:06;3.85;;;2.03;;
14847;SDS011;7516;43.570;1.448;2022-09-12T11:33:47;4.53;;;2.15;;
14847;SDS011;7516;43.570;1.448;2022-09-12T11:36:26;6.15;;;2.20;;
14847;SDS011;7516;43.570;1.448;2022-09-12T11:39:02;4.68;;;2.20;;
14847;SDS011;7516;43.570;1.448;2022-09-12T11:41:40;3.08;;;2.03;;
14847;SDS011;7516;43.570;1.448;2022-09-12T11:44:11;2.42;;;2.08;;
14847;SDS011;7516;43.570;1.448;2022-09-12T11:46:45;4.30;;;2.50;;
14847;SDS011;7516;43.570;1.448;2022-09-12T11:49:21;2.97;;;2.10;;
14847;SDS011;7516;43.570;1.448;2022-09-12T11:51:56;3.95;;;1.95;;
14847;SDS011;7516;43.570;1.448;2022-09-12T11:54:31;4.80;;;2.40;;
14847;SDS011;7516;43.570;1.448;2022-09-12T11:57:04;6.65;;;2.70;;
14847;SDS011;7516;43.570;1.448;2022-09-12T11:59:42;5.15;;;3.20;;
14847;SDS011;7516;43.570;1.448;2022-09-12T12:02:16;3.85;;;2.78;;
14847;SDS011;7516;43.570;1.448;2022-09-12T12:04:58;3.08;;;2.42;;
14847;SDS011;7516;43.570;1.448;2022-09-12T12:07:33;3.75;;;2.47;;
14847;SDS011;7516;43.570;1.448;2022-09-12T12:10:19;5.38;;;3.00;;
14847;SDS011;7516;43.570;1.448;2022-09-12T12:12:50;6.47;;;2.95;;
14847;SDS011;7516;43.570;1.448;2022-09-12T12:15:20;3.03;;;2.17;;
14847;SDS011;7516;43.570;1.448;2022-09-12T12:18:00;3.67;;;1.98;;
14847;SDS011;7516;43.570;1.448;2022-09-12T12:20:30;3.50;;;2.30;;
14847;SDS011;7516;43.570;1.448;2022-09-12T12:22:57;3.65;;;2.08;;
14847;SDS011;7516;43.570;1.448;2022-09-12T12:25:37;5.38;;;2.35;;
14847;SDS011;7516;43.570;1.448;2022-09-12T12:28:07;4.00;;;2.83;;
14847;SDS011;7516;43.570;1.448;2022-09-12T12:36:38;4.57;;;2.15;;
14847;SDS011;7516;43.570;1.448;2022-09-12T12:51:29;3.75;;;1.80;;
14847;SDS011;7516;43.570;1.448;2022-09-12T12:57:17;2.17;;;1.85;;
14847;SDS011;7516;43.570;1.448;2022-09-12T12:59:53;3.95;;;2.13;;
14847;SDS011;7516;43.570;1.448;2022-09-12T13:02:24;3.83;;;2.35;;
14847;SDS011;7516;43.570;1.448;2022-09-12T13:04:56;4.38;;;2.00;;
14847;SDS011;7516;43.570;1.448;2022-09-12T13:07:29;2.92;;;1.95;;
14847;SDS011;7516;43.570;1.448;2022-09-12T13:09:59;5.15;;;1.98;;
14847;SDS011;7516;43.570;1.448;2022-09-12T13:12:28;5.28;;;1.92;;
14847;SDS011;7516;43.570;1.448;2022-09-12T13:14:59;4.45;;;2.15;;
14847;SDS011;7516;43.570;1.448;2022-09-12T13:17:29;5.80;;;2.08;;
14847;SDS011;7516;43.570;1.448;2022-09-12T13:20:04;5.75;;;2.30;;
14847;SDS011;7516;43.570;1.448;2022-09-12T13:22:46;2.63;;;1.90;;
14847;SDS011;7516;43.570;1.448;2022-09-12T13:25:19;3.17;;;1.88;;
14847;SDS011;7516;43.570;1.448;2022-09-12T13:27:55;2.53;;;2.05;;
14847;SDS011;7516;43.570;1.448;2022-09-12T13:30:24;2.58;;;2.05;;
14847;SDS011;7516;43.570;1.448;2022-09-12T13:32:52;4.70;;;2.20;;
14847;SDS011;7516;43.570;1.448;2022-09-12T13:35:24;3.67;;;2.13;;
14847;SDS011;7516;43.570;1.448;2022-09-12T13:38:04;2.95;;;2.20;;
14847;SDS011;7516;43.570;1.448;2022-09-12T13:40:44;3.95;;;1.92;;
14847;SDS011;7516;43.570;1.448;2022-09-12T13:43:25;5.38;;;1.95;;
14847;SDS011;7516;43.570;1.448;2022-09-12T13:46:02;4.47;;;1.83;;
14847;SDS011;7516;43.570;1.448;2022-09-12T13:48:31;3.45;;;1.80;;
14847;SDS011;7516;43.570;1.448;2022-09-12T13:51:00;5.20;;;2.10;;
14847;SDS011;7516;43.570;1.448;2022-09-12T13:53:34;6.95;;;1.70;;
14847;SDS011;7516;43.570;1.448;2022-09-12T13:56:14;5.10;;;2.00;;
14847;SDS011;7516;43.570;1.448;2022-09-12T13:58:49;2.33;;;1.48;;
14847;SDS011;7516;43.570;1.448;2022-09-12T14:01:19;3.05;;;1.80;;
14847;SDS011;7516;43.570;1.448;2022-09-12T14:03:48;2.03;;;1.50;;
14847;SDS011;7516;43.570;1.448;2022-09-12T14:06:35;2.63;;;1.75;;
14847;SDS011;7516;43.570;1.448;2022-09-12T14:09:14;4.35;;;1.90;;
14847;SDS011;7516;43.570;1.448;2022-09-12T14:11:46;6.22;;;1.92;;
14847;SDS011;7516;43.570;1.448;2022-09-12T14:14:17;2.25;;;1.80;;
14847;SDS011;7516;43.570;1.448;2022-09-12T14:16:53;5.00;;;1.80;;
14847;SDS011;7516;43.570;1.448;2022-09-12T14:19:21;3.80;;;1.92;;
14847;SDS011;7516;43.570;1.448;2022-09-12T14:21:51;2.78;;;1.80;;
14847;SDS011;7516;43.570;1.448;2022-09-12T14:24:20;5.93;;;2.20;;
14847;SDS011;7516;43.570;1.448;2022-09-12T14:26:50;4.57;;;2.10;;
14847;SDS011;7516;43.570;1.448;2022-09-12T14:29:20;2.25;;;1.83;;
14847;SDS011;7516;43.570;1.448;2022-09-12T14:31:59;4.85;;;1.90;;
14847;SDS011;7516;43.570;1.448;2022-09-12T14:34:27;4.38;;;1.85;;
14847;SDS011;7516;43.570;1.448;2022-09-12T14:36:55;6.22;;;1.70;;
14847;SDS011;7516;43.570;1.448;2022-09-12T14:39:27;3.15;;;1.90;;
14847;SDS011;7516;43.570;1.448;2022-09-12T14:42:02;2.53;;;1.77;;
14847;SDS011;7516;43.570;1.448;2022-09-12T14:44:32;2.90;;;2.00;;
14847;SDS011;7516;43.570;1.448;2022-09-12T14:47:09;2.92;;;1.98;;
14847;SDS011;7516;43.570;1.448;2022-09-12T14:49:40;4.22;;;2.08;;
14847;SDS011;7516;43.570;1.448;2022-09-12T14:52:15;2.42;;;1.90;;
14847;SDS011;7516;43.570;1.448;2022-09-12T14:54:57;5.90;;;2.00;;
14847;SDS011;7516;43.570;1.448;2022-09-12T14:57:33;3.17;;;1.63;;
14847;SDS011;7516;43.570;1.448;2022-09-12T15:00:20;4.05;;;2.05;;
14847;SDS011;7516;43.570;1.448;2022-09-12T15:02:48;2.13;;;1.80;;
14847;SDS011;7516;43.570;1.448;2022-09-12T15:05:19;7.07;;;2.10;;
14847;SDS011;7516;43.570;1.448;2022-09-12T15:07:53;3.85;;;2.20;;
14847;SDS011;7516;43.570;1.448;2022-09-12T15:10:25;3.58;;;1.90;;
14847;SDS011;7516;43.570;1.448;2022-09-12T15:13:14;4.25;;;2.05;;
14847;SDS011;7516;43.570;1.448;2022-09-12T15:15:44;5.38;;;2.30;;
14847;SDS011;7516;43.570;1.448;2022-09-12T15:18:13;4.18;;;2.28;;
14847;SDS011;7516;43.570;1.448;2022-09-12T15:20:42;7.25;;;2.47;;
14847;SDS011;7516;43.570;1.448;2022-09-12T15:23:17;4.22;;;2.28;;
14847;SDS011;7516;43.570;1.448;2022-09-12T15:25:53;2.30;;;1.85;;
14847;SDS011;7516;43.570;1.448;2022-09-12T15:28:21;4.38;;;2.22;;
14847;SDS011;7516;43.570;1.448;2022-09-12T15:30:50;2.90;;;2.30;;
14847;SDS011;7516;43.570;1.448;2022-09-12T15:33:19;6.95;;;2.25;;
14847;SDS011;7516;43.570;1.448;2022-09-12T15:35:48;4.75;;;2.35;;
14847;SDS011;7516;43.570;1.448;2022-09-12T15:38:17;6.72;;;2.53;;
14847;SDS011;7516;43.570;1.448;2022-09-12T15:40:48;4.55;;;2.55;;
14847;SDS011;7516;43.570;1.448;2022-09-12T15:43:19;4.28;;;2.20;;
14847;SDS011;7516;43.570;1.448;2022-09-12T15:45:50;5.18;;;2.42;;
14847;SDS011;7516;43.570;1.448;2022-09-12T15:48:17;3.63;;;2.30;;
14847;SDS011;7516;43.570;1.448;2022-09-12T15:50:46;5.43;;;2.40;;
14847;SDS011;7516;43.570;1.448;2022-09-12T15:53:14;4.00;;;2.55;;
14847;SDS011;7516;43.570;1.448;2022-09-12T15:55:42;4.05;;;2.10;;
14847;SDS011;7516;43.570;1.448;2022-09-12T15:58:10;2.58;;;2.08;;
14847;SDS011;7516;43.570;1.448;2022-09-12T16:00:39;3.47;;;2.25;;